Time;durP1;ratioP1;P1;durP2;ratioP2;P2;SDS_P1;SDS_P2;PMS_P1;PMS_P2;Temp;Humidity;BMP_temperature;BMP_pressure;BME280_temperature;BME280_humidity;BME280_pressure;Samples;Min_cycle;Max_cycle;Signal;HPM_P1;HPM_P2
2024/01/20 00:02:03;;;;;;;54.40;25.92;;;0.60;99.90;;;;;;5090800;28;20419;-39
2024/01/20 00:04:29;;;;;;;51.47;24.27;;;0.60;99.90;;;;;;5090221;28;20054;-40
2024/01/20 00:06:55;;;;;;;47.38;24.60;;;0.60;99.90;;;;;;5090664;28;20020;-39
2024/01/20 00:09:20;;;;;;;50.03;23.60;;;0.60;99.90;;;;;;5090480;28;20081;-39
2024/01/20 00:11:46;;;;;;;45.53;23.38;;;0.60;99.90;;;;;;5090225;28;20020;-39
2024/01/20 00:14:11;;;;;;;43.25;23.95;;;0.70;99.90;;;;;;5090851;28;20081;-39
2024/01/20 00:16:37;;;;;;;51.47;22.92;;;0.70;99.90;;;;;;5090270;28;20019;-40
2024/01/20 00:19:03;;;;;;;45.95;22.70;;;0.70;99.90;;;;;;5090743;28;20020;-40
2024/01/20 00:21:29;;;;;;;50.00;24.52;;;0.70;99.90;;;;;;5090036;28;20020;-39
2024/01/20 00:23:55;;;;;;;49.78;23.58;;;0.70;99.90;;;;;;5089368;28;20113;-40
2024/01/20 00:26:21;;;;;;;51.25;24.52;;;0.70;99.90;;;;;;5090300;28;20032;-40
2024/01/20 00:28:46;;;;;;;46.70;22.75;;;0.70;99.90;;;;;;5090525;28;20022;-39
2024/01/20 00:31:12;;;;;;;49.45;24.77;;;0.70;99.90;;;;;;5090909;28;20028;-39
2024/01/20 00:33:37;;;;;;;54.40;24.17;;;0.80;99.90;;;;;;5091171;28;20012;-40
2024/01/20 00:36:03;;;;;;;52.30;23.88;;;0.80;99.90;;;;;;5090988;28;20031;-40
2024/01/20 00:38:28;;;;;;;45.75;22.45;;;0.80;99.90;;;;;;5090717;28;20016;-40
2024/01/20 00:40:54;;;;;;;47.65;23.67;;;0.80;99.90;;;;;;5090458;28;20112;-40
2024/01/20 00:43:20;;;;;;;47.47;22.10;;;0.80;99.90;;;;;;5091119;28;20035;-40
2024/01/20 00:45:46;;;;;;;43.97;22.88;;;0.80;99.90;;;;;;5090179;28;20078;-40
2024/01/20 00:48:11;;;;;;;48.67;24.00;;;0.80;99.90;;;;;;5091500;28;20035;-41
2024/01/20 00:50:37;;;;;;;42.72;22.92;;;0.80;99.90;;;;;;5090566;28;20020;-41
2024/01/20 00:53:03;;;;;;;51.38;23.52;;;0.80;99.90;;;;;;5092162;28;20032;-40
2024/01/20 00:55:28;;;;;;;47.00;23.85;;;0.80;99.90;;;;;;5090655;28;20043;-40
2024/01/20 00:57:54;;;;;;;45.65;22.63;;;0.70;99.90;;;;;;5091410;28;20016;-40
2024/01/20 01:00:19;;;;;;;44.70;23.70;;;0.80;99.90;;;;;;5090213;28;20016;-40
2024/01/20 01:02:45;;;;;;;42.38;22.30;;;0.70;99.90;;;;;;5090803;28;20016;-41
2024/01/20 01:05:10;;;;;;;51.03;22.27;;;0.70;99.90;;;;;;5091823;28;20034;-40
2024/01/20 01:07:36;;;;;;;51.13;24.80;;;0.70;99.90;;;;;;5090934;28;20040;-40
2024/01/20 01:10:06;;;;;;;49.40;24.42;;;0.70;99.90;;;;;;5088951;28;20048;-40
2024/01/20 01:12:32;;;;;;;47.95;23.52;;;0.70;99.90;;;;;;5084363;28;20012;-40
2024/01/20 01:14:58;;;;;;;51.17;23.42;;;0.70;99.90;;;;;;5090147;28;20043;-40
2024/01/20 01:17:23;;;;;;;45.53;21.73;;;0.70;99.90;;;;;;5090951;28;20020;-43
2024/01/20 01:19:49;;;;;;;50.80;21.00;;;0.70;99.90;;;;;;5090195;28;20023;-41
2024/01/20 01:22:14;;;;;;;41.72;21.38;;;0.70;99.90;;;;;;5092062;28;20023;-40
2024/01/20 01:24:40;;;;;;;50.35;22.48;;;0.70;99.90;;;;;;5089340;28;20326;-39
2024/01/20 01:27:06;;;;;;;42.17;22.33;;;0.70;99.90;;;;;;5092180;28;20115;-40
2024/01/20 01:29:31;;;;;;;43.53;20.92;;;0.70;99.90;;;;;;5090814;28;20016;-40
2024/01/20 01:31:57;;;;;;;46.25;21.05;;;0.70;99.90;;;;;;5091588;28;20024;-40
2024/01/20 01:34:23;;;;;;;45.45;21.25;;;0.80;99.90;;;;;;5073774;28;20540;-40
2024/01/20 01:36:48;;;;;;;43.88;22.88;;;0.80;99.90;;;;;;5091385;28;20016;-39
2024/01/20 01:39:16;;;;;;;42.13;21.50;;;0.80;99.90;;;;;;5092804;28;20032;-39
2024/01/20 01:41:42;;;;;;;42.00;21.83;;;0.80;99.90;;;;;;5089730;28;20507;-40
2024/01/20 01:44:07;;;;;;;47.40;23.17;;;0.80;99.90;;;;;;5092521;28;20234;-39
2024/01/20 01:46:33;;;;;;;43.67;22.50;;;0.80;99.90;;;;;;5092588;28;20081;-39
2024/01/20 01:48:58;;;;;;;42.78;21.15;;;0.90;99.90;;;;;;5095766;28;20069;-40
2024/01/20 01:51:24;;;;;;;46.67;21.90;;;0.90;99.90;;;;;;5095945;28;20419;-39
2024/01/20 01:53:50;;;;;;;46.15;22.02;;;0.90;99.90;;;;;;5095259;28;20511;-39
2024/01/20 01:56:16;;;;;;;40.28;21.10;;;1.00;99.90;;;;;;5096297;28;20114;-40
2024/01/20 01:58:42;;;;;;;44.35;21.95;;;1.00;99.90;;;;;;5094928;28;20444;-40
2024/01/20 02:01:08;;;;;;;42.70;21.08;;;1.00;99.90;;;;;;5095147;28;20020;-40
2024/01/20 02:03:33;;;;;;;46.85;22.15;;;1.10;99.90;;;;;;5095204;28;20029;-39
2024/01/20 02:05:59;;;;;;;43.83;22.48;;;1.10;99.90;;;;;;5095798;28;20435;-39
2024/01/20 02:08:25;;;;;;;43.97;22.70;;;1.10;99.90;;;;;;5095796;28;20155;-39
2024/01/20 02:10:52;;;;;;;46.20;21.85;;;1.10;99.90;;;;;;5094850;28;20113;-41
2024/01/20 02:13:18;;;;;;;40.75;20.73;;;1.10;99.90;;;;;;5096907;28;20458;-40
2024/01/20 02:15:45;;;;;;;38.30;21.00;;;1.10;99.90;;;;;;5094738;28;20020;-42
2024/01/20 02:18:11;;;;;;;49.22;22.05;;;1.10;99.90;;;;;;5097079;28;20028;-40
2024/01/20 02:20:36;;;;;;;48.20;22.17;;;1.20;99.90;;;;;;5094668;28;20089;-40
2024/01/20 02:23:02;;;;;;;51.40;22.35;;;1.20;99.90;;;;;;5096485;28;20020;-40
2024/01/20 02:25:27;;;;;;;38.17;20.65;;;1.20;99.90;;;;;;5095718;28;20068;-40
2024/01/20 02:27:53;;;;;;;48.00;22.17;;;1.20;99.90;;;;;;5095175;28;20073;-40
2024/01/20 02:30:19;;;;;;;43.83;21.73;;;1.30;99.90;;;;;;5096891;28;20072;-40
2024/01/20 02:32:44;;;;;;;40.88;21.92;;;1.20;99.90;;;;;;5095154;28;20032;-41
2024/01/20 02:35:10;;;;;;;45.50;24.27;;;1.30;99.90;;;;;;5096954;28;20039;-40
2024/01/20 02:37:35;;;;;;;49.47;23.65;;;1.30;99.90;;;;;;5093963;28;20047;-39
2024/01/20 02:40:01;;;;;;;43.13;22.45;;;1.30;99.90;;;;;;5091051;28;20085;-41
2024/01/20 02:42:27;;;;;;;48.72;23.40;;;1.30;99.90;;;;;;5091240;28;20016;-41
2024/01/20 02:44:52;;;;;;;56.15;24.73;;;1.30;99.90;;;;;;5091426;28;20081;-41
2024/01/20 02:47:19;;;;;;;45.90;23.75;;;1.30;99.90;;;;;;5090583;28;20024;-41
2024/01/20 02:49:44;;;;;;;44.90;24.33;;;1.40;99.90;;;;;;5091568;28;20408;-42
2024/01/20 02:52:10;;;;;;;43.33;23.00;;;1.40;99.90;;;;;;5091713;28;20020;-40
2024/01/20 02:54:35;;;;;;;53.03;23.83;;;1.30;99.90;;;;;;5091312;28;20024;-41
2024/01/20 02:57:02;;;;;;;47.65;23.02;;;1.30;99.90;;;;;;5095859;28;20028;-41
2024/01/20 02:59:28;;;;;;;47.15;23.05;;;1.40;99.90;;;;;;5095349;28;20073;-41
2024/01/20 03:01:53;;;;;;;50.42;23.77;;;1.40;99.90;;;;;;5093316;28;20050;-41
2024/01/20 03:04:19;;;;;;;48.72;24.58;;;1.30;99.90;;;;;;5097406;28;20031;-40
2024/01/20 03:06:44;;;;;;;42.83;23.42;;;1.30;99.90;;;;;;5095105;28;20154;-41
2024/01/20 03:09:14;;;;;;;47.50;24.25;;;1.30;99.90;;;;;;5095220;28;20032;-42
2024/01/20 03:11:41;;;;;;;48.28;22.70;;;1.30;99.90;;;;;;5094703;28;20024;-41
2024/01/20 03:14:06;;;;;;;49.92;23.45;;;1.30;99.90;;;;;;5093696;28;20032;-43
2024/01/20 03:16:32;;;;;;;42.13;23.67;;;1.40;99.90;;;;;;5092675;28;20020;-41
2024/01/20 03:18:57;;;;;;;45.60;24.00;;;1.40;99.90;;;;;;5091713;28;20108;-41
2024/01/20 03:21:23;;;;;;;51.97;25.98;;;1.40;99.90;;;;;;5096460;28;20024;-41
2024/01/20 03:23:49;;;;;;;47.38;24.38;;;1.40;99.90;;;;;;5095091;28;20058;-41
2024/01/20 03:26:14;;;;;;;47.47;23.73;;;1.40;99.90;;;;;;5096018;28;20077;-41
2024/01/20 03:28:40;;;;;;;47.92;25.30;;;1.30;99.90;;;;;;5093886;28;20434;-41
2024/01/20 03:31:06;;;;;;;46.10;23.83;;;1.30;99.90;;;;;;5096844;28;20098;-41
2024/01/20 03:33:32;;;;;;;47.05;23.77;;;1.30;99.90;;;;;;5092911;28;20036;-41
2024/01/20 03:35:57;;;;;;;53.72;24.45;;;1.30;99.90;;;;;;5095816;28;20440;-41
2024/01/20 03:38:23;;;;;;;50.13;25.13;;;1.30;99.90;;;;;;5097020;28;20698;-40
2024/01/20 03:40:48;;;;;;;55.97;25.33;;;1.30;99.90;;;;;;5094713;28;20492;-40
2024/01/20 03:43:14;;;;;;;50.05;24.02;;;1.30;99.90;;;;;;5097693;28;20459;-40
2024/01/20 03:45:41;;;;;;;55.80;24.23;;;1.30;99.90;;;;;;5092826;28;20020;-40
2024/01/20 03:48:07;;;;;;;50.65;24.55;;;1.30;99.90;;;;;;5097242;28;20524;-40
2024/01/20 03:50:33;;;;;;;49.78;24.65;;;1.30;99.90;;;;;;5089513;28;20047;-39
2024/01/20 03:52:58;;;;;;;52.17;23.80;;;1.30;99.90;;;;;;5090325;28;20039;-40
2024/01/20 03:55:24;;;;;;;55.00;25.35;;;1.30;99.90;;;;;;5089363;28;20024;-39
2024/01/20 03:57:49;;;;;;;47.03;23.23;;;1.30;99.90;;;;;;5089872;28;20098;-40
2024/01/20 04:00:15;;;;;;;48.10;23.60;;;1.30;99.90;;;;;;5089940;28;20185;-40
2024/01/20 04:02:41;;;;;;;50.65;25.10;;;1.30;99.90;;;;;;5089614;28;20596;-41
2024/01/20 04:05:07;;;;;;;56.63;23.67;;;1.30;99.90;;;;;;5094059;28;20103;-42
2024/01/20 04:07:32;;;;;;;50.25;23.73;;;1.30;99.90;;;;;;5095989;28;20110;-42
2024/01/20 04:09:58;;;;;;;48.35;24.15;;;1.30;99.90;;;;;;5092772;28;20035;-43
2024/01/20 04:12:24;;;;;;;48.15;22.95;;;1.30;99.90;;;;;;5095436;28;20030;-41
2024/01/20 04:14:49;;;;;;;48.53;23.30;;;1.40;99.90;;;;;;5093914;28;20028;-44
2024/01/20 04:17:15;;;;;;;55.22;24.13;;;1.40;99.90;;;;;;5090538;28;20377;-41
2024/01/20 04:19:41;;;;;;;53.33;24.88;;;1.40;99.90;;;;;;5089886;28;20428;-42
2024/01/20 04:22:06;;;;;;;51.90;24.63;;;1.40;99.90;;;;;;5091241;28;20431;-42
2024/01/20 04:24:32;;;;;;;49.25;22.70;;;1.30;99.90;;;;;;5094955;28;20030;-40
2024/01/20 04:26:58;;;;;;;48.83;22.98;;;1.40;99.90;;;;;;5094433;28;20020;-40
2024/01/20 04:29:23;;;;;;;61.60;26.65;;;1.40;99.90;;;;;;5096451;28;20526;-40
2024/01/20 04:31:49;;;;;;;54.22;23.75;;;1.40;99.90;;;;;;5094237;28;20835;-41
2024/01/20 04:34:14;;;;;;;48.05;23.42;;;1.40;99.90;;;;;;5095676;28;20027;-40
2024/01/20 04:36:40;;;;;;;52.63;24.88;;;1.40;99.90;;;;;;5095721;28;20020;-40
2024/01/20 04:39:05;;;;;;;48.00;22.00;;;1.40;99.90;;;;;;5095779;28;20028;-40
2024/01/20 04:41:31;;;;;;;48.88;23.63;;;1.40;99.90;;;;;;5096031;28;20012;-41
2024/01/20 04:43:57;;;;;;;47.45;22.25;;;1.40;99.90;;;;;;5096077;28;20088;-40
2024/01/20 04:46:22;;;;;;;54.22;22.98;;;1.40;99.90;;;;;;5097670;28;20469;-40
2024/01/20 04:48:48;;;;;;;48.55;21.83;;;1.40;99.90;;;;;;5095235;28;20077;-39
2024/01/20 04:51:13;;;;;;;44.28;21.08;;;1.40;99.90;;;;;;5097847;28;20034;-40
2024/01/20 04:53:39;;;;;;;45.67;21.65;;;1.40;99.90;;;;;;5096438;28;20048;-40
2024/01/20 04:56:05;;;;;;;46.72;23.30;;;1.50;99.90;;;;;;5095668;28;20036;-40
2024/01/20 04:58:31;;;;;;;49.28;24.75;;;1.40;99.90;;;;;;5097048;28;20039;-40
2024/01/20 05:00:57;;;;;;;45.33;19.80;;;1.40;99.90;;;;;;5094330;28;20013;-39
2024/01/20 05:03:23;;;;;;;46.92;21.75;;;1.50;99.90;;;;;;5097196;28;20412;-39
2024/01/20 05:05:48;;;;;;;47.88;23.20;;;1.40;99.90;;;;;;5095293;28;20024;-39
2024/01/20 05:08:14;;;;;;;48.05;21.08;;;1.50;99.90;;;;;;5096837;28;20100;-40
2024/01/20 05:10:39;;;;;;;45.42;21.65;;;1.50;99.90;;;;;;5094428;28;20032;-40
2024/01/20 05:13:05;;;;;;;42.60;21.40;;;1.50;99.90;;;;;;5097405;28;20081;-39
2024/01/20 05:15:31;;;;;;;44.10;21.20;;;1.50;99.90;;;;;;5097424;28;20484;-40
2024/01/20 05:17:56;;;;;;;43.97;20.67;;;1.50;99.90;;;;;;5096230;28;20039;-40
2024/01/20 05:20:22;;;;;;;38.65;19.65;;;1.50;99.90;;;;;;5098864;28;20019;-42
2024/01/20 05:22:48;;;;;;;42.35;20.27;;;1.50;99.90;;;;;;5099729;28;20024;-40
2024/01/20 05:25:14;;;;;;;46.42;20.77;;;1.50;99.90;;;;;;5102996;28;20088;-39
2024/01/20 05:27:40;;;;;;;43.17;20.70;;;1.50;99.90;;;;;;5100642;28;20031;-39
2024/01/20 05:30:06;;;;;;;37.85;19.75;;;1.50;99.90;;;;;;5098981;28;20024;-40
2024/01/20 05:32:32;;;;;;;48.00;20.92;;;1.40;99.90;;;;;;5093447;28;20044;-42
2024/01/20 05:34:58;;;;;;;46.42;20.95;;;1.40;99.90;;;;;;5097663;28;20326;-41
2024/01/20 05:37:23;;;;;;;41.85;20.15;;;1.40;99.90;;;;;;5102835;28;20084;-40
2024/01/20 05:39:50;;;;;;;43.70;19.75;;;1.30;99.90;;;;;;5098271;28;20069;-41
2024/01/20 05:42:16;;;;;;;46.63;22.85;;;1.30;99.90;;;;;;5097786;28;20098;-41
2024/01/20 05:44:42;;;;;;;42.35;20.17;;;1.30;99.90;;;;;;5096380;28;20102;-40
2024/01/20 05:47:07;;;;;;;48.70;21.15;;;1.20;99.90;;;;;;5100190;28;20028;-40
2024/01/20 05:49:33;;;;;;;40.60;20.95;;;1.20;99.90;;;;;;5101885;28;20032;-39
2024/01/20 05:51:58;;;;;;;42.20;20.05;;;1.10;99.90;;;;;;5086811;28;20449;-40
2024/01/20 05:54:24;;;;;;;46.20;21.33;;;1.10;99.90;;;;;;5102638;27;20077;-41
2024/01/20 05:56:49;;;;;;;35.60;17.75;;;1.10;99.90;;;;;;5098540;28;20451;-41
2024/01/20 05:59:15;;;;;;;37.40;19.77;;;1.00;99.90;;;;;;5102865;28;20024;-41
2024/01/20 06:01:41;;;;;;;47.85;20.10;;;1.00;99.90;;;;;;5100835;27;20043;-41
2024/01/20 06:04:06;;;;;;;35.58;19.45;;;1.00;99.90;;;;;;5101589;28;20024;-41
2024/01/20 06:06:32;;;;;;;40.28;19.52;;;0.90;99.90;;;;;;5102471;28;20020;-40
2024/01/20 06:08:58;;;;;;;38.10;19.23;;;0.90;99.90;;;;;;5100602;28;20353;-40
2024/01/20 06:11:24;;;;;;;37.78;19.27;;;0.90;99.90;;;;;;5099348;28;20035;-40
2024/01/20 06:13:50;;;;;;;34.38;18.63;;;0.90;99.90;;;;;;5099947;28;20019;-40
2024/01/20 06:16:16;;;;;;;34.72;18.35;;;0.80;99.90;;;;;;5102807;28;20054;-40
2024/01/20 06:18:41;;;;;;;43.15;18.90;;;0.80;99.90;;;;;;5100854;28;20104;-40
2024/01/20 06:21:08;;;;;;;37.03;18.58;;;0.80;99.90;;;;;;5099893;28;20031;-41
2024/01/20 06:23:33;;;;;;;48.30;19.40;;;0.80;99.90;;;;;;5102228;28;20015;-40
2024/01/20 06:25:59;;;;;;;35.20;17.58;;;0.80;99.90;;;;;;5100307;28;20020;-40
2024/01/20 06:28:26;;;;;;;33.83;17.83;;;0.80;99.90;;;;;;5103585;28;20089;-40
2024/01/20 06:30:52;;;;;;;35.72;18.30;;;0.80;99.90;;;;;;5099412;28;20024;-41
2024/01/20 06:33:17;;;;;;;39.42;17.90;;;0.80;99.90;;;;;;5102434;28;20439;-40
2024/01/20 06:35:43;;;;;;;34.88;16.15;;;0.80;99.90;;;;;;5100648;28;20023;-40
2024/01/20 06:38:09;;;;;;;27.30;15.88;;;0.80;99.90;;;;;;5101970;28;20384;-40
2024/01/20 06:40:34;;;;;;;37.42;17.42;;;0.80;99.90;;;;;;5101831;27;20024;-41
2024/01/20 06:43:00;;;;;;;30.10;17.40;;;0.80;99.90;;;;;;5099581;28;20073;-40
2024/01/20 06:45:25;;;;;;;44.67;17.05;;;0.80;99.90;;;;;;5104049;28;20074;-40
2024/01/20 06:47:51;;;;;;;35.38;15.88;;;0.80;99.90;;;;;;5100077;28;20020;-40
2024/01/20 06:50:17;;;;;;;36.28;16.45;;;0.80;99.90;;;;;;5102712;28;20027;-40
2024/01/20 06:52:42;;;;;;;30.60;16.13;;;0.80;99.90;;;;;;5101532;28;20031;-40
2024/01/20 06:55:08;;;;;;;37.92;16.98;;;0.70;99.90;;;;;;5102274;28;20028;-40
2024/01/20 06:57:34;;;;;;;30.88;16.38;;;0.70;99.90;;;;;;5102218;27;20015;-41
2024/01/20 07:00:00;;;;;;;32.08;16.95;;;0.70;99.90;;;;;;5101212;28;20035;-40
2024/01/20 07:02:25;;;;;;;28.77;15.32;;;0.70;99.90;;;;;;5103520;28;20020;-41
2024/01/20 07:04:51;;;;;;;27.95;15.40;;;0.70;99.90;;;;;;5100077;28;20396;-40
2024/01/20 07:07:17;;;;;;;36.40;16.52;;;0.70;99.90;;;;;;5103408;28;20030;-40
2024/01/20 07:09:42;;;;;;;28.30;14.38;;;0.70;99.90;;;;;;5101858;28;20058;-40
2024/01/20 07:12:08;;;;;;;33.03;15.55;;;0.70;99.90;;;;;;5096399;28;20406;-40
2024/01/20 07:14:35;;;;;;;36.90;15.55;;;0.70;99.90;;;;;;5099791;28;20503;-41
2024/01/20 07:17:01;;;;;;;32.67;15.77;;;0.70;99.90;;;;;;5098496;28;20020;-40
2024/01/20 07:19:26;;;;;;;31.65;15.07;;;0.70;99.90;;;;;;5103380;28;20064;-40
2024/01/20 07:21:52;;;;;;;30.48;15.05;;;0.70;99.90;;;;;;5098183;28;20020;-41
2024/01/20 07:24:18;;;;;;;36.83;15.63;;;0.60;99.90;;;;;;5095741;28;20026;-42
2024/01/20 07:26:43;;;;;;;26.73;14.43;;;0.60;99.90;;;;;;5095261;28;20023;-41
2024/01/20 07:29:09;;;;;;;36.83;14.02;;;0.70;99.90;;;;;;5099891;28;20104;-41
2024/01/20 07:31:35;;;;;;;33.38;13.25;;;0.70;99.90;;;;;;5102583;28;20447;-41
2024/01/20 07:34:01;;;;;;;29.80;13.68;;;0.70;99.90;;;;;;5100835;28;20095;-42
2024/01/20 07:36:28;;;;;;;28.05;12.30;;;0.60;99.90;;;;;;5103515;28;20535;-40
2024/01/20 07:38:54;;;;;;;27.98;14.32;;;0.60;99.90;;;;;;5095564;28;20012;-41
2024/01/20 07:41:20;;;;;;;33.78;12.82;;;0.60;99.90;;;;;;5103180;28;20037;-41
2024/01/20 07:43:45;;;;;;;28.63;13.57;;;0.60;99.90;;;;;;5097655;28;20079;-41
2024/01/20 07:46:12;;;;;;;24.85;13.23;;;0.50;99.90;;;;;;5100425;28;20035;-41
2024/01/20 07:48:37;;;;;;;26.65;13.05;;;0.50;99.90;;;;;;5099493;28;20023;-41
2024/01/20 07:51:03;;;;;;;25.48;14.05;;;0.50;99.90;;;;;;5103448;28;20155;-41
2024/01/20 07:53:30;;;;;;;26.70;13.73;;;0.40;99.90;;;;;;5101621;28;20582;-41
2024/01/20 07:55:55;;;;;;;25.88;12.88;;;0.40;99.90;;;;;;5099616;28;20103;-41
2024/01/20 07:58:21;;;;;;;29.95;13.07;;;0.40;99.90;;;;;;5100216;28;20429;-42
2024/01/20 08:00:46;;;;;;;26.30;12.32;;;0.40;99.90;;;;;;5101309;28;20046;-41
2024/01/20 08:03:12;;;;;;;26.25;12.98;;;0.40;99.90;;;;;;5102444;28;20051;-41
2024/01/20 08:05:37;;;;;;;27.45;11.82;;;0.40;99.90;;;;;;5102991;28;20023;-42
2024/01/20 08:08:03;;;;;;;33.58;14.07;;;0.40;99.90;;;;;;5101196;28;20099;-41
2024/01/20 08:10:29;;;;;;;26.48;13.05;;;0.40;99.90;;;;;;5101807;28;20392;-40
2024/01/20 08:12:55;;;;;;;26.95;12.80;;;0.40;99.90;;;;;;5100726;28;20016;-40
2024/01/20 08:15:21;;;;;;;29.98;12.85;;;0.40;99.90;;;;;;5103227;28;20032;-40
2024/01/20 08:17:46;;;;;;;28.38;12.90;;;0.40;99.90;;;;;;5101456;28;20113;-41
2024/01/20 08:20:12;;;;;;;24.92;12.93;;;0.40;99.90;;;;;;5102305;28;20035;-41
2024/01/20 08:22:37;;;;;;;30.25;13.88;;;0.40;99.90;;;;;;5102717;28;20175;-41
2024/01/20 08:25:04;;;;;;;31.65;13.32;;;0.40;99.90;;;;;;5101095;28;20034;-40
2024/01/20 08:27:30;;;;;;;25.95;12.85;;;0.40;99.90;;;;;;5103621;28;20015;-39
2024/01/20 08:29:56;;;;;;;24.13;12.48;;;0.40;99.90;;;;;;5100134;28;20504;-40
2024/01/20 08:32:22;;;;;;;29.25;13.75;;;0.50;99.90;;;;;;5097229;28;20015;-40
2024/01/20 08:34:48;;;;;;;36.28;14.65;;;0.50;99.90;;;;;;5095787;28;20035;-40
2024/01/20 08:37:13;;;;;;;26.10;13.13;;;0.60;99.90;;;;;;5102794;28;20024;-41
2024/01/20 08:39:39;;;;;;;30.13;14.25;;;0.50;99.90;;;;;;5097237;28;20024;-41
2024/01/20 08:42:04;;;;;;;29.17;13.93;;;0.60;99.90;;;;;;5100350;28;20457;-40
2024/01/20 08:44:32;;;;;;;32.47;13.90;;;0.60;99.90;;;;;;5097770;28;20036;-42
2024/01/20 08:46:58;;;;;;;34.40;14.13;;;0.60;99.90;;;;;;5100472;28;20024;-41
2024/01/20 08:49:23;;;;;;;31.60;15.52;;;0.70;99.90;;;;;;5103584;28;20080;-40
2024/01/20 08:51:49;;;;;;;34.10;13.23;;;0.70;99.90;;;;;;5100854;28;20032;-41
2024/01/20 08:54:15;;;;;;;26.85;12.95;;;0.70;99.90;;;;;;5102853;28;20447;-42
2024/01/20 08:56:41;;;;;;;33.05;14.68;;;0.70;99.90;;;;;;5100655;28;20438;-41
2024/01/20 08:59:07;;;;;;;27.45;14.07;;;0.80;99.90;;;;;;5101762;28;20034;-41
2024/01/20 09:01:33;;;;;;;26.98;14.02;;;0.80;99.90;;;;;;5103426;28;20088;-39
2024/01/20 09:04:00;;;;;;;31.73;14.10;;;0.80;99.90;;;;;;5095565;28;20119;-41
2024/01/20 09:06:25;;;;;;;30.80;14.10;;;0.90;99.90;;;;;;5095306;28;20046;-40
2024/01/20 09:08:51;;;;;;;29.25;14.30;;;0.90;99.90;;;;;;5091632;28;20027;-39
2024/01/20 09:11:17;;;;;;;29.38;14.43;;;0.90;99.90;;;;;;5103147;28;20023;-39
2024/01/20 09:13:42;;;;;;;31.23;14.57;;;1.00;99.90;;;;;;5101879;28;20384;-40
2024/01/20 09:16:09;;;;;;;38.42;17.35;;;1.00;99.90;;;;;;5101814;28;20020;-40
2024/01/20 09:18:34;;;;;;;27.58;13.65;;;1.00;99.90;;;;;;5103666;28;20016;-39
2024/01/20 09:21:00;;;;;;;29.75;15.20;;;1.00;99.90;;;;;;5100908;28;20024;-39
2024/01/20 09:23:25;;;;;;;31.75;13.52;;;1.10;99.90;;;;;;5104005;28;20020;-39
2024/01/20 09:25:51;;;;;;;28.92;15.05;;;1.10;99.90;;;;;;5101995;28;20038;-40
2024/01/20 09:28:17;;;;;;;32.63;15.60;;;1.20;99.90;;;;;;5103555;28;20077;-39
2024/01/20 09:30:42;;;;;;;28.88;13.35;;;1.20;99.90;;;;;;5101463;28;20480;-39
2024/01/20 09:33:08;;;;;;;31.85;14.38;;;1.30;99.90;;;;;;5102404;28;20020;-40
2024/01/20 09:35:34;;;;;;;32.70;13.63;;;1.30;99.90;;;;;;5104428;28;20030;-40
2024/01/20 09:37:59;;;;;;;28.33;13.50;;;1.30;99.90;;;;;;5102051;28;20032;-39
2024/01/20 09:40:25;;;;;;;33.50;14.60;;;1.30;99.90;;;;;;5103874;28;20454;-40
2024/01/20 09:42:51;;;;;;;29.63;13.65;;;1.40;99.90;;;;;;5102933;28;20440;-40
2024/01/20 09:45:18;;;;;;;37.08;14.15;;;1.50;99.90;;;;;;5104175;28;20051;-40
2024/01/20 09:47:44;;;;;;;27.98;13.60;;;1.50;99.90;;;;;;5102708;28;20065;-40
2024/01/20 09:50:10;;;;;;;26.40;12.55;;;1.50;99.90;;;;;;5102788;28;20084;-40
2024/01/20 09:52:52;;;;;;;30.73;15.27;;;1.60;99.90;;;;;;5104482;28;20128;-40
2024/01/20 09:55:21;;;;;;;30.08;12.93;;;1.60;99.90;;;;;;5104086;28;20019;-40
2024/01/20 09:57:49;;;;;;;31.00;12.82;;;1.70;99.90;;;;;;5103393;28;20752;-41
2024/01/20 10:00:16;;;;;;;28.08;13.30;;;1.70;99.90;;;;;;5102444;28;20020;-40
2024/01/20 10:02:44;;;;;;;29.17;13.60;;;1.80;99.90;;;;;;5102320;28;20318;-40
2024/01/20 10:05:12;;;;;;;28.75;14.45;;;1.80;99.90;;;;;;5096524;28;20016;-42
2024/01/20 10:07:38;;;;;;;26.42;13.10;;;1.90;99.90;;;;;;5106150;28;20051;-40
2024/01/20 10:10:05;;;;;;;30.55;13.57;;;2.00;99.90;;;;;;5105857;28;20070;-41
2024/01/20 10:12:30;;;;;;;29.20;13.35;;;2.20;99.90;;;;;;5108217;28;20023;-41
2024/01/20 10:14:56;;;;;;;30.75;13.73;;;2.20;99.90;;;;;;5104982;28;20076;-41
2024/01/20 10:17:22;;;;;;;29.55;13.38;;;2.30;99.90;;;;;;5108531;28;20018;-41
2024/01/20 10:19:47;;;;;;;29.98;12.93;;;2.40;99.90;;;;;;5107328;28;20021;-41
2024/01/20 10:22:13;;;;;;;33.50;14.13;;;2.50;99.90;;;;;;5106971;28;20012;-41
2024/01/20 10:24:45;;;;;;;29.55;13.20;;;2.50;99.90;;;;;;5108053;28;20024;-40
2024/01/20 10:27:18;;;;;;;28.88;12.68;;;2.60;99.90;;;;;;5099955;28;20116;-40
2024/01/20 10:29:45;;;;;;;29.65;13.27;;;2.60;99.90;;;;;;5095601;28;20023;-40
2024/01/20 10:32:10;;;;;;;29.30;14.68;;;2.60;99.90;;;;;;5105148;28;20027;-40
2024/01/20 10:34:36;;;;;;;24.77;13.07;;;2.70;99.90;;;;;;5101422;28;20231;-40
2024/01/20 10:37:10;;;;;;;28.90;14.02;;;3.30;99.90;;;;;;5098964;28;20024;-41
2024/01/20 10:39:43;;;;;;;23.55;12.38;;;4.60;99.90;;;;;;5108435;28;20027;-42
2024/01/20 10:42:13;;;;;;;27.90;12.63;;;5.80;99.90;;;;;;5099472;28;20051;-41
2024/01/20 10:44:48;;;;;;;20.00;11.05;;;7.10;99.90;;;;;;5104133;28;20406;-41
2024/01/20 10:47:29;;;;;;;20.75;11.30;;;8.10;99.20;;;;;;5105135;28;20047;-42
2024/01/20 10:49:55;;;;;;;19.90;11.02;;;8.60;96.80;;;;;;5099216;28;20031;-42
2024/01/20 10:52:21;;;;;;;23.08;12.70;;;9.20;94.90;;;;;;5096514;28;20027;-43
2024/01/20 10:54:48;;;;;;;18.42;11.00;;;9.20;93.60;;;;;;5107658;28;20020;-41
2024/01/20 10:57:13;;;;;;;17.05;10.98;;;9.40;93.80;;;;;;5107098;28;20051;-41
2024/01/20 10:59:42;;;;;;;18.27;10.98;;;10.40;91.90;;;;;;5103402;28;20044;-43
2024/01/20 11:02:12;;;;;;;19.02;10.98;;;10.40;91.20;;;;;;5104486;28;20012;-42
2024/01/20 11:04:39;;;;;;;19.10;12.02;;;11.40;89.40;;;;;;5104130;28;20035;-42
2024/01/20 11:07:08;;;;;;;17.83;10.75;;;11.60;88.00;;;;;;5105182;28;20107;-43
2024/01/20 11:09:33;;;;;;;16.35;11.00;;;11.80;85.80;;;;;;5105794;28;20012;-44
2024/01/20 11:12:07;;;;;;;15.82;10.48;;;11.70;85.60;;;;;;5104986;28;20106;-41
2024/01/20 11:14:33;;;;;;;14.32;9.85;;;11.60;84.50;;;;;;5106068;28;20073;-41
2024/01/20 11:17:12;;;;;;;16.85;10.65;;;10.90;86.40;;;;;;5105200;28;20024;-43
2024/01/20 11:19:38;;;;;;;14.80;10.07;;;11.20;86.00;;;;;;5106430;28;20030;-44
2024/01/20 11:22:24;;;;;;;16.65;10.25;;;11.70;85.00;;;;;;5104221;28;20555;-42
2024/01/20 11:24:52;;;;;;;15.63;9.50;;;12.10;83.90;;;;;;5106273;28;20023;-45
2024/01/20 11:27:18;;;;;;;14.35;9.57;;;12.80;82.20;;;;;;5108133;28;20088;-42
2024/01/20 11:29:44;;;;;;;18.92;10.25;;;12.90;81.20;;;;;;5107982;28;20434;-42
2024/01/20 11:32:09;;;;;;;17.15;11.10;;;12.60;82.00;;;;;;5105643;28;20043;-44
2024/01/20 11:34:35;;;;;;;20.67;11.00;;;12.50;81.60;;;;;;5108300;28;20393;-43
2024/01/20 11:37:01;;;;;;;19.13;11.15;;;12.50;80.50;;;;;;5107185;28;20103;-41
2024/01/20 11:39:27;;;;;;;14.73;9.90;;;12.20;80.90;;;;;;5093762;28;20023;-43
2024/01/20 11:42:03;;;;;;;14.60;9.85;;;12.30;82.10;;;;;;5089861;28;20012;-43
2024/01/20 11:44:31;;;;;;;18.05;9.60;;;12.70;80.90;;;;;;5092458;28;20463;-42
2024/01/20 11:46:58;;;;;;;14.95;8.63;;;12.80;81.50;;;;;;5093084;28;20015;-42
2024/01/20 11:49:25;;;;;;;15.60;9.63;;;12.70;79.70;;;;;;5093202;28;20042;-43
2024/01/20 11:51:50;;;;;;;16.90;10.18;;;13.10;78.80;;;;;;5088820;28;20024;-42
2024/01/20 11:54:16;;;;;;;22.38;10.15;;;13.00;78.10;;;;;;5095479;28;20191;-45
2024/01/20 11:56:41;;;;;;;16.55;10.50;;;12.90;79.50;;;;;;5107879;28;20063;-42
2024/01/20 11:59:07;;;;;;;14.80;9.60;;;12.60;78.50;;;;;;5107401;28;20524;-43
2024/01/20 12:01:33;;;;;;;14.18;9.57;;;12.90;79.40;;;;;;5107987;28;20090;-44
2024/01/20 12:04:00;;;;;;;18.23;10.00;;;13.00;78.40;;;;;;5096975;28;20099;-43
2024/01/20 12:06:26;;;;;;;15.55;9.13;;;13.10;77.60;;;;;;5094060;28;20023;-42
2024/01/20 12:08:51;;;;;;;16.92;10.63;;;13.20;77.10;;;;;;5099315;28;20035;-43
2024/01/20 12:11:22;;;;;;;20.60;10.75;;;13.40;77.70;;;;;;5107505;28;20388;-42
2024/01/20 12:13:47;;;;;;;14.38;9.18;;;12.60;78.60;;;;;;5108715;28;20172;-42
2024/01/20 12:16:13;;;;;;;15.60;9.20;;;12.70;77.70;;;;;;5107626;28;20103;-42
2024/01/20 12:18:39;;;;;;;15.48;8.68;;;12.90;77.60;;;;;;5108155;28;20016;-42
2024/01/20 12:21:06;;;;;;;13.65;8.80;;;13.30;76.90;;;;;;5106126;28;20153;-41
2024/01/20 12:23:32;;;;;;;14.73;9.07;;;12.90;77.30;;;;;;5107224;28;20116;-43
2024/01/20 12:25:59;;;;;;;13.63;9.05;;;12.70;77.40;;;;;;5099721;28;20071;-43
2024/01/20 12:28:25;;;;;;;14.15;9.20;;;12.40;78.60;;;;;;5091885;28;20028;-44
2024/01/20 12:30:50;;;;;;;17.90;9.60;;;12.00;79.20;;;;;;5090049;28;20518;-43